MSC Ludovica — HPAF — position and weather

sailwx.info

Track history (hours):
 
Tides and Currents Weather Stations Pressure Air Temp Water Temp Dewpoint Dewpoint Depression Visibility Wind Speed Wind Dir Waves Ship Positions

MSC Ludovica

Last reported at 2018-Apr-16 18:42 UTC. Time now 2018-Apr-20 09:00 UTC.
Position N 26°12' W 079°13'.

Length 300 m; draft 11.1 m.

Type: Ship. MMSI: 351248000.

Date/timePositionNaut miles runAvg speedWind from/ knotsBaromVisibWave heightAir tempDewpointWater temp
2018-Apr-16 18:42N 26°12' W 079°13'419.3
2018-Apr-16 18:30N 26°11' W 079°17'816.6
2018-Apr-16 18:00N 26°10' W 079°27'815.5
2018-Apr-16 17:30N 26°09' W 079°35'815.6
2018-Apr-16 17:00N 26°08' W 079°44'815.8
2018-Apr-16 16:30N 26°07' W 079°53'815.7
2018-Apr-16 16:00N 26°06' W 080°01'510.3
2018-Apr-16 15:30N 26°06' W 080°07'2 2.6
2018-Apr-16 14:55N 26°04' W 080°07'0 0.0
2018-Apr-16 14:28N 26°04' W 080°07'0 0.0
2018-Apr-16 13:58N 26°04' W 080°07'0 0.0
2018-Apr-16 13:28N 26°04' W 080°07'0 0.0
2018-Apr-16 12:58N 26°04' W 080°07'0 0.0
2018-Apr-16 12:28N 26°04' W 080°07'0 0.0
2018-Apr-16 11:58N 26°04' W 080°07'0 0.0
2018-Apr-16 11:28N 26°04' W 080°07'0 0.0
2018-Apr-16 10:58N 26°04' W 080°07'0 0.0
2018-Apr-16 10:28N 26°04' W 080°07'0 0.0
2018-Apr-16 09:58N 26°04' W 080°07'0 0.0
2018-Apr-16 09:28N 26°04' W 080°07'0 0.0
2018-Apr-16 08:58N 26°04' W 080°07'0 0.0
2018-Apr-16 08:28N 26°04' W 080°07'0 0.0
2018-Apr-16 07:58N 26°04' W 080°07'0 0.0
2018-Apr-16 07:28N 26°04' W 080°07'0 0.0
2018-Apr-16 06:58N 26°04' W 080°07'0 0.0
2018-Apr-16 06:28N 26°04' W 080°07'0 0.0
2018-Apr-16 05:58N 26°04' W 080°07'0 0.0
2018-Apr-16 05:28N 26°04' W 080°07'0 0.0
2018-Apr-16 04:58N 26°04' W 080°07'0 0.0
2018-Apr-16 04:28N 26°04' W 080°07'0 0.0
2018-Apr-16 03:58N 26°04' W 080°07'0 0.0
2018-Apr-16 03:28N 26°04' W 080°07'0 0.0
2018-Apr-16 02:58N 26°04' W 080°07'0 0.0
2018-Apr-16 02:28N 26°04' W 080°07'0 0.0
2018-Apr-16 01:58N 26°04' W 080°07'0 0.0
2018-Apr-16 01:28N 26°04' W 080°07'0 0.0
2018-Apr-16 00:58N 26°04' W 080°07'0 0.0
2018-Apr-16 00:28N 26°04' W 080°07'0 0.0
2018-Apr-15 23:58N 26°04' W 080°07'0 0.0
2018-Apr-15 23:30N 26°04' W 080°07'0 0.0
2018-Apr-15 23:00N 26°04' W 080°07'1 1.4
2018-Apr-15 22:30N 26°05' W 080°07'2 3.3
2018-Apr-15 22:00N 26°06' W 080°05'3 5.9
2018-Apr-15 21:30N 26°06' W 080°02'1 2.5
2018-Apr-15 21:00N 26°06' W 080°01'2 4.7
2018-Apr-15 20:30N 26°08' W 079°59'2 4.3
2018-Apr-15 20:00N 26°10' W 079°58'3 5.0
2018-Apr-15 19:30N 26°12' W 079°57'2 4.1
2018-Apr-15 19:00N 26°14' W 079°56'3 6.3
2018-Apr-15 18:30N 26°17' W 079°55'4 7.2
2018-Apr-15 18:00N 26°20' W 079°54'4 7.7
2018-Apr-15 17:30N 26°24' W 079°54'4 7.9
2018-Apr-15 17:00N 26°28' W 079°54'5 8.1
2018-Apr-15 16:23N 26°33' W 079°53'18 8.2
2018-Apr-15 14:07N 26°51' W 079°51'3 8.3
2018-Apr-15 13:44N 26°55' W 079°51'2 8.3
2018-Apr-15 13:30N 26°57' W 079°51'4 8.3
2018-Apr-15 13:00N 27°01' W 079°50'4 8.4
2018-Apr-15 12:30N 27°05' W 079°50'29212.6
2018-Apr-14 13:24N 31°55' W 080°33'3 8.6
2018-Apr-14 13:00N 31°56' W 080°36'5 9.4
2018-Apr-14 12:30N 31°58' W 080°42'611.6
2018-Apr-14 12:00N 32°00' W 080°48'612.2
2018-Apr-14 11:30N 32°02' W 080°54'510.6
2018-Apr-14 11:00N 32°06' W 080°59'4 7.5
2018-Apr-14 10:30N 32°05' W 081°04'2 4.7
2018-Apr-14 10:00N 32°06' W 081°06'2 3.6
2018-Apr-14 09:30N 32°07' W 081°08'1 1.4
2018-Apr-14 08:53N 32°08' W 081°08'0 0.0
2018-Apr-14 08:29N 32°08' W 081°08'0 0.0
2018-Apr-14 07:47N 32°08' W 081°08'0 0.0
2018-Apr-14 07:29N 32°08' W 081°08'0 0.0
2018-Apr-14 06:59N 32°08' W 081°08'0 0.0
2018-Apr-14 06:17N 32°08' W 081°08'0 0.0
2018-Apr-14 05:59N 32°08' W 081°08'0 0.0
2018-Apr-14 05:29N 32°08' W 081°08'0 0.0
2018-Apr-14 04:53N 32°08' W 081°08'0 0.0
2018-Apr-14 04:29N 32°08' W 081°08'0 0.0
2018-Apr-14 03:59N 32°08' W 081°08'0 0.0
2018-Apr-14 03:29N 32°08' W 081°08'0 0.0
2018-Apr-14 02:53N 32°08' W 081°08'0 0.0
2018-Apr-14 02:29N 32°08' W 081°08'0 0.0
2018-Apr-14 01:53N 32°08' W 081°08'0 0.0
2018-Apr-14 01:29N 32°08' W 081°08'0 0.0
2018-Apr-14 00:59N 32°08' W 081°08'0 0.0
2018-Apr-14 00:23N 32°08' W 081°08'0 0.0
2018-Apr-13 23:59N 32°08' W 081°08'0 0.0
2018-Apr-13 23:29N 32°08' W 081°08'0 0.0
2018-Apr-13 22:59N 32°08' W 081°08'0 0.0
2018-Apr-13 22:29N 32°08' W 081°08'0 0.0
2018-Apr-13 21:59N 32°08' W 081°08'0 0.0
2018-Apr-13 21:29N 32°08' W 081°08'0 0.0
2018-Apr-13 20:59N 32°08' W 081°08'0 0.0
2018-Apr-13 20:17N 32°08' W 081°08'0 0.0
2018-Apr-13 19:59N 32°08' W 081°08'0 0.0
2018-Apr-13 19:29N 32°08' W 081°08'0 0.0
2018-Apr-13 18:59N 32°08' W 081°08'0 0.0
2018-Apr-13 18:29N 32°08' W 081°08'0 0.0
2018-Apr-13 17:59N 32°08' W 081°08'0 0.0
2018-Apr-13 17:29N 32°08' W 081°08'0 0.0
2018-Apr-13 16:59N 32°08' W 081°08'0 0.0
2018-Apr-13 16:29N 32°08' W 081°08'0 0.0
2018-Apr-13 15:59N 32°08' W 081°08'0 0.0
2018-Apr-13 15:29N 32°08' W 081°08'0 0.0
2018-Apr-13 14:59N 32°08' W 081°08'0 0.0
2018-Apr-13 14:29N 32°08' W 081°08'0 0.0
2018-Apr-13 13:58N 32°08' W 081°08'0 0.6
2018-Apr-13 13:30N 32°08' W 081°08'2 4.3
2018-Apr-13 13:00N 32°06' W 081°07'3 5.6
2018-Apr-13 12:30N 32°05' W 081°04'3 5.3
2018-Apr-13 12:00N 32°06' W 081°01'510.9
2018-Apr-13 11:30N 32°03' W 080°56'612.0
2018-Apr-13 11:00N 32°02' W 080°49'713.7
2018-Apr-13 10:30N 31°58' W 080°42'5 9.8
2018-Apr-13 09:59N 31°56' W 080°36'5 9.8
2018-Apr-13 09:30N 31°55' W 080°31'5 9.7
2018-Apr-13 09:00N 31°54' W 080°25'1 2.6
2018-Apr-13 08:28N 31°54' W 080°24'0 0.5
2018-Apr-13 07:59N 31°54' W 080°24'2 3.5
2018-Apr-13 07:31N 31°55' W 080°23'371 7.8
2018-Apr-11 08:06N 36°51' W 075°52'3 9.7
2018-Apr-11 07:49N 36°53' W 075°54'3 9.7
2018-Apr-11 07:29N 36°55' W 075°57'4 9.3
2018-Apr-11 07:00N 36°59' W 076°00'6516.9
2018-Apr-11 03:08N 38°03' W 076°13'318.9
2018-Apr-11 02:59N 38°06' W 076°13'5418.2
2018-Apr-11 00:00N 38°60' W 076°23'714.9
2018-Apr-10 23:30N 39°07' W 076°24'712.0
2018-Apr-10 22:56N 39°12' W 076°30'4 8.7
2018-Apr-10 22:30N 39°15' W 076°34'1 1.5
2018-Apr-10 22:00N 39°15' W 076°33'0 0.1
2018-Apr-10 21:30N 39°15' W 076°33'0 0.0
2018-Apr-10 20:45N 39°15' W 076°33'0 0.0
2018-Apr-10 20:21N 39°15' W 076°33'0 0.0
2018-Apr-10 19:57N 39°15' W 076°33'0 0.0
2018-Apr-10 19:30N 39°15' W 076°33'0 0.0
2018-Apr-10 18:52N 39°15' W 076°33'0 0.0
2018-Apr-10 18:27N 39°15' W 076°33'0 0.0
2018-Apr-10 18:00N 39°15' W 076°33'0 0.0
2018-Apr-10 17:27N 39°15' W 076°33'0 0.0
2018-Apr-10 16:57N 39°15' W 076°33'0 0.0
2018-Apr-10 16:30N 39°15' W 076°33'0 0.0
2018-Apr-10 16:00N 39°15' W 076°33'0 0.0
2018-Apr-10 15:30N 39°15' W 076°33'0 0.0
2018-Apr-10 14:57N 39°15' W 076°33'0 0.0
2018-Apr-10 14:21N 39°15' W 076°33'0 0.0
2018-Apr-10 13:57N 39°15' W 076°33'0 0.0
2018-Apr-10 13:27N 39°15' W 076°33'0 0.0
2018-Apr-10 12:57N 39°15' W 076°33'0 0.0
2018-Apr-10 12:27N 39°15' W 076°33'0 0.0
2018-Apr-10 11:51N 39°15' W 076°33'0 0.0
2018-Apr-10 11:27N 39°15' W 076°33'0 0.0
2018-Apr-10 10:57N 39°15' W 076°33'0 0.0
2018-Apr-10 10:30N 39°15' W 076°33'0 0.0
2018-Apr-10 10:00N 39°15' W 076°33'1 1.3
2018-Apr-10 09:30N 39°14' W 076°33'3 5.1
2018-Apr-10 09:00N 39°12' W 076°31'711.5
2018-Apr-10 08:22N 39°07' W 076°24'513.4
2018-Apr-10 07:59N 39°02' W 076°23'611.0
2018-Apr-10 07:29N 38°57' W 076°24'4517.3
2018-Apr-10 04:53N 38°12' W 076°15'818.3
2018-Apr-10 04:27N 38°05' W 076°13'6016.3
2018-Apr-10 00:45N 37°05' W 076°06'417.6
2018-Apr-10 00:30N 37°01' W 076°03'814.8
2018-Apr-09 23:58N 36°56' W 075°56'3 7.0
2018-Apr-09 23:30N 36°53' W 075°53'3 6.8
2018-Apr-09 23:00N 36°51' W 075°50'3 6.0
2018-Apr-09 22:27N 36°50' W 075°46'4 8.1
2018-Apr-09 22:00N 36°49' W 075°42'192 7.1
2018-Apr-08 19:05N 39°41' W 073°53'212.6
2018-Apr-08 18:58N 39°42' W 073°52'612.6
2018-Apr-08 18:29N 39°48' W 073°52'2212.4
2018-Apr-08 16:44N 40°10' W 073°49'2 9.8
2018-Apr-08 16:30N 40°12' W 073°49'5 9.9
2018-Apr-08 15:59N 40°17' W 073°49'5 9.8
2018-Apr-08 15:30N 40°22' W 073°49'5 9.4
2018-Apr-08 15:00N 40°27' W 073°50'5 9.7
2018-Apr-08 14:30N 40°29' W 073°55'611.8
2018-Apr-08 14:00N 40°33' W 074°02'612.9
2018-Apr-08 13:30N 40°39' W 074°05'2 4.8
2018-Apr-08 13:00N 40°39' W 074°08'1 2.7
2018-Apr-08 12:30N 40°40' W 074°08'1 2.3
2018-Apr-08 12:00N 40°41' W 074°09'0 0.8
2018-Apr-08 11:30N 40°41' W 074°09'0 0.0
2018-Apr-08 11:00N 40°41' W 074°09'0 0.0
2018-Apr-08 10:30N 40°41' W 074°09'0 0.0
2018-Apr-08 10:00N 40°41' W 074°09'0 0.0
2018-Apr-08 09:30N 40°41' W 074°09'0 0.0
2018-Apr-08 09:00N 40°41' W 074°09'0 0.0
2018-Apr-08 08:30N 40°41' W 074°09'0 0.0
2018-Apr-08 08:00N 40°41' W 074°09'0 0.0
2018-Apr-08 07:30N 40°41' W 074°09'0 0.0
2018-Apr-08 07:00N 40°41' W 074°09'0 0.0
2018-Apr-08 06:30N 40°41' W 074°09'0 0.0
2018-Apr-08 06:00N 40°41' W 074°09'0 0.0
2018-Apr-08 05:30N 40°41' W 074°09'0 0.0
2018-Apr-08 05:00N 40°41' W 074°09'0 0.0
2018-Apr-08 04:30N 40°41' W 074°09'0 0.0
2018-Apr-08 03:57N 40°41' W 074°09'0 0.0
2018-Apr-08 03:30N 40°41' W 074°09'0 0.0
2018-Apr-08 03:00N 40°41' W 074°09'0 0.0
2018-Apr-08 02:27N 40°41' W 074°09'0 0.0
2018-Apr-08 02:00N 40°41' W 074°09'0 0.0
2018-Apr-08 01:30N 40°41' W 074°09'0 0.0
2018-Apr-08 01:00N 40°41' W 074°09'0 0.0
2018-Apr-08 00:30N 40°41' W 074°09'0 0.0
2018-Apr-08 00:00N 40°41' W 074°09'0 0.0
2018-Apr-07 23:30N 40°41' W 074°09'0 0.0
2018-Apr-07 23:00N 40°41' W 074°09'0 0.0
2018-Apr-07 22:30N 40°41' W 074°09'0 0.0
2018-Apr-07 22:00N 40°41' W 074°09'0 0.0
2018-Apr-07 21:27N 40°41' W 074°09'0 0.0
2018-Apr-07 21:00N 40°41' W 074°09'0 0.0
2018-Apr-07 20:30N 40°41' W 074°09'0 0.0
2018-Apr-07 20:00N 40°41' W 074°09'0 0.0
2018-Apr-07 19:30N 40°41' W 074°09'0 0.0
2018-Apr-07 19:00N 40°41' W 074°09'0 0.0
2018-Apr-07 18:30N 40°41' W 074°09'0 0.0
2018-Apr-07 18:00N 40°41' W 074°09'0 0.0
2018-Apr-07 17:30N 40°41' W 074°09'0 0.0
2018-Apr-07 17:00N 40°41' W 074°09'0 0.0
2018-Apr-07 16:30N 40°41' W 074°09'0 0.0
2018-Apr-07 16:00N 40°41' W 074°09'0 0.0
2018-Apr-07 15:30N 40°41' W 074°09'0 0.0
2018-Apr-07 15:00N 40°41' W 074°09'0 0.0
2018-Apr-07 14:30N 40°41' W 074°09'0 0.0
2018-Apr-07 14:00N 40°41' W 074°09'0 0.0
2018-Apr-07 13:30N 40°41' W 074°09'0 0.0
2018-Apr-07 13:00N 40°41' W 074°09'0 0.0
2018-Apr-07 12:30N 40°41' W 074°09'1 1.5
2018-Apr-07 12:00N 40°41' W 074°09'2 4.3
2018-Apr-07 11:30N 40°39' W 074°09'3 5.0
2018-Apr-07 11:00N 40°39' W 074°05'3 5.8
2018-Apr-07 10:30N 40°37' W 074°03'612.7
2018-Apr-07 10:00N 40°31' W 073°59'611.2
2018-Apr-07 09:30N 40°29' W 073°53'4 9.0
2018-Apr-07 09:01N 40°26' W 073°48'5 9.7
2018-Apr-07 08:28N 40°21' W 073°46'3811.7
2018-Apr-07 05:11N 39°43' W 073°43'415.1
2018-Apr-07 04:56N 39°40' W 073°45'715.1
2018-Apr-07 04:29N 39°33' W 073°48'3415.0
2018-Apr-07 02:12N 39°02' W 074°06'315.0
2018-Apr-07 02:00N 38°59' W 074°08'715.0
2018-Apr-07 01:30N 38°53' W 074°12'815.1
2018-Apr-07 01:00N 38°46' W 074°17'  
Track history (hours):
 
Tides and Currents Weather Stations Pressure Air Temp Water Temp Dewpoint Dewpoint Depression Visibility Wind Speed Wind Dir Waves Ship Positions

MSC Ludovica

Last reported at 2018-Apr-16 18:42 UTC. Time now 2018-Apr-20 09:00 UTC.
Position N 26°12' W 079°13'.

Length 300 m; draft 11.1 m.

Type: Ship. MMSI: 351248000.

Date/timePositionNaut miles runAvg speedWind from/ knotsBaromVisibWave heightAir tempDewpointWater temp
2018-Apr-16 18:42N 26°12' W 079°13'419.3
2018-Apr-16 18:30N 26°11' W 079°17'816.6
2018-Apr-16 18:00N 26°10' W 079°27'815.5
2018-Apr-16 17:30N 26°09' W 079°35'815.6
2018-Apr-16 17:00N 26°08' W 079°44'815.8
2018-Apr-16 16:30N 26°07' W 079°53'815.7
2018-Apr-16 16:00N 26°06' W 080°01'510.3
2018-Apr-16 15:30N 26°06' W 080°07'2 2.6
2018-Apr-16 14:55N 26°04' W 080°07'0 0.0
2018-Apr-16 14:28N 26°04' W 080°07'0 0.0
2018-Apr-16 13:58N 26°04' W 080°07'0 0.0
2018-Apr-16 13:28N 26°04' W 080°07'0 0.0
2018-Apr-16 12:58N 26°04' W 080°07'0 0.0
2018-Apr-16 12:28N 26°04' W 080°07'0 0.0
2018-Apr-16 11:58N 26°04' W 080°07'0 0.0
2018-Apr-16 11:28N 26°04' W 080°07'0 0.0
2018-Apr-16 10:58N 26°04' W 080°07'0 0.0
2018-Apr-16 10:28N 26°04' W 080°07'0 0.0
2018-Apr-16 09:58N 26°04' W 080°07'0 0.0
2018-Apr-16 09:28N 26°04' W 080°07'0 0.0
2018-Apr-16 08:58N 26°04' W 080°07'0 0.0
2018-Apr-16 08:28N 26°04' W 080°07'0 0.0
2018-Apr-16 07:58N 26°04' W 080°07'0 0.0
2018-Apr-16 07:28N 26°04' W 080°07'0 0.0
2018-Apr-16 06:58N 26°04' W 080°07'0 0.0
2018-Apr-16 06:28N 26°04' W 080°07'0 0.0
2018-Apr-16 05:58N 26°04' W 080°07'0 0.0
2018-Apr-16 05:28N 26°04' W 080°07'0 0.0
2018-Apr-16 04:58N 26°04' W 080°07'0 0.0
2018-Apr-16 04:28N 26°04' W 080°07'0 0.0
2018-Apr-16 03:58N 26°04' W 080°07'0 0.0
2018-Apr-16 03:28N 26°04' W 080°07'0 0.0
2018-Apr-16 02:58N 26°04' W 080°07'0 0.0
2018-Apr-16 02:28N 26°04' W 080°07'0 0.0
2018-Apr-16 01:58N 26°04' W 080°07'0 0.0
2018-Apr-16 01:28N 26°04' W 080°07'0 0.0
2018-Apr-16 00:58N 26°04' W 080°07'0 0.0
2018-Apr-16 00:28N 26°04' W 080°07'0 0.0
2018-Apr-15 23:58N 26°04' W 080°07'0 0.0
2018-Apr-15 23:30N 26°04' W 080°07'0 0.0
2018-Apr-15 23:00N 26°04' W 080°07'1 1.4
2018-Apr-15 22:30N 26°05' W 080°07'2 3.3
2018-Apr-15 22:00N 26°06' W 080°05'3 5.9
2018-Apr-15 21:30N 26°06' W 080°02'1 2.5
2018-Apr-15 21:00N 26°06' W 080°01'2 4.7
2018-Apr-15 20:30N 26°08' W 079°59'2 4.3
2018-Apr-15 20:00N 26°10' W 079°58'3 5.0
2018-Apr-15 19:30N 26°12' W 079°57'2 4.1
2018-Apr-15 19:00N 26°14' W 079°56'3 6.3
2018-Apr-15 18:30N 26°17' W 079°55'4 7.2
2018-Apr-15 18:00N 26°20' W 079°54'4 7.7
2018-Apr-15 17:30N 26°24' W 079°54'4 7.9
2018-Apr-15 17:00N 26°28' W 079°54'5 8.1
2018-Apr-15 16:23N 26°33' W 079°53'18 8.2
2018-Apr-15 14:07N 26°51' W 079°51'3 8.3
2018-Apr-15 13:44N 26°55' W 079°51'2 8.3
2018-Apr-15 13:30N 26°57' W 079°51'4 8.3
2018-Apr-15 13:00N 27°01' W 079°50'4 8.4
2018-Apr-15 12:30N 27°05' W 079°50'29212.6
2018-Apr-14 13:24N 31°55' W 080°33'3 8.6
2018-Apr-14 13:00N 31°56' W 080°36'5 9.4
2018-Apr-14 12:30N 31°58' W 080°42'611.6
2018-Apr-14 12:00N 32°00' W 080°48'612.2
2018-Apr-14 11:30N 32°02' W 080°54'510.6
2018-Apr-14 11:00N 32°06' W 080°59'4 7.5
2018-Apr-14 10:30N 32°05' W 081°04'2 4.7
2018-Apr-14 10:00N 32°06' W 081°06'2 3.6
2018-Apr-14 09:30N 32°07' W 081°08'1 1.4
2018-Apr-14 08:53N 32°08' W 081°08'0 0.0
2018-Apr-14 08:29N 32°08' W 081°08'0 0.0
2018-Apr-14 07:47N 32°08' W 081°08'0 0.0
2018-Apr-14 07:29N 32°08' W 081°08'0 0.0
2018-Apr-14 06:59N 32°08' W 081°08'0 0.0
2018-Apr-14 06:17N 32°08' W 081°08'0 0.0
2018-Apr-14 05:59N 32°08' W 081°08'0 0.0
2018-Apr-14 05:29N 32°08' W 081°08'0 0.0
2018-Apr-14 04:53N 32°08' W 081°08'0 0.0
2018-Apr-14 04:29N 32°08' W 081°08'0 0.0
2018-Apr-14 03:59N 32°08' W 081°08'0 0.0
2018-Apr-14 03:29N 32°08' W 081°08'0 0.0
2018-Apr-14 02:53N 32°08' W 081°08'0 0.0
2018-Apr-14 02:29N 32°08' W 081°08'0 0.0
2018-Apr-14 01:53N 32°08' W 081°08'0 0.0
2018-Apr-14 01:29N 32°08' W 081°08'0 0.0
2018-Apr-14 00:59N 32°08' W 081°08'0 0.0
2018-Apr-14 00:23N 32°08' W 081°08'0 0.0
2018-Apr-13 23:59N 32°08' W 081°08'0 0.0
2018-Apr-13 23:29N 32°08' W 081°08'0 0.0
2018-Apr-13 22:59N 32°08' W 081°08'0 0.0
2018-Apr-13 22:29N 32°08' W 081°08'0 0.0
2018-Apr-13 21:59N 32°08' W 081°08'0 0.0
2018-Apr-13 21:29N 32°08' W 081°08'0 0.0
2018-Apr-13 20:59N 32°08' W 081°08'0 0.0
2018-Apr-13 20:17N 32°08' W 081°08'0 0.0
2018-Apr-13 19:59N 32°08' W 081°08'0 0.0
2018-Apr-13 19:29N 32°08' W 081°08'0 0.0
2018-Apr-13 18:59N 32°08' W 081°08'0 0.0
2018-Apr-13 18:29N 32°08' W 081°08'0 0.0
2018-Apr-13 17:59N 32°08' W 081°08'0 0.0
2018-Apr-13 17:29N 32°08' W 081°08'0 0.0
2018-Apr-13 16:59N 32°08' W 081°08'0 0.0
2018-Apr-13 16:29N 32°08' W 081°08'0 0.0
2018-Apr-13 15:59N 32°08' W 081°08'0 0.0
2018-Apr-13 15:29N 32°08' W 081°08'0 0.0
2018-Apr-13 14:59N 32°08' W 081°08'0 0.0
2018-Apr-13 14:29N 32°08' W 081°08'0 0.0
2018-Apr-13 13:58N 32°08' W 081°08'0 0.6
2018-Apr-13 13:30N 32°08' W 081°08'2 4.3
2018-Apr-13 13:00N 32°06' W 081°07'3 5.6
2018-Apr-13 12:30N 32°05' W 081°04'3 5.3
2018-Apr-13 12:00N 32°06' W 081°01'510.9
2018-Apr-13 11:30N 32°03' W 080°56'612.0
2018-Apr-13 11:00N 32°02' W 080°49'713.7
2018-Apr-13 10:30N 31°58' W 080°42'5 9.8
2018-Apr-13 09:59N 31°56' W 080°36'5 9.8
2018-Apr-13 09:30N 31°55' W 080°31'5 9.7
2018-Apr-13 09:00N 31°54' W 080°25'1 2.6
2018-Apr-13 08:28N 31°54' W 080°24'0 0.5
2018-Apr-13 07:59N 31°54' W 080°24'2 3.5
2018-Apr-13 07:31N 31°55' W 080°23'371 7.8
2018-Apr-11 08:06N 36°51' W 075°52'3 9.7
2018-Apr-11 07:49N 36°53' W 075°54'3 9.7
2018-Apr-11 07:29N 36°55' W 075°57'4 9.3
2018-Apr-11 07:00N 36°59' W 076°00'6516.9
2018-Apr-11 03:08N 38°03' W 076°13'318.9
2018-Apr-11 02:59N 38°06' W 076°13'5418.2
2018-Apr-11 00:00N 38°60' W 076°23'714.9
2018-Apr-10 23:30N 39°07' W 076°24'712.0
2018-Apr-10 22:56N 39°12' W 076°30'4 8.7
2018-Apr-10 22:30N 39°15' W 076°34'1 1.5
2018-Apr-10 22:00N 39°15' W 076°33'0 0.1
2018-Apr-10 21:30N 39°15' W 076°33'0 0.0
2018-Apr-10 20:45N 39°15' W 076°33'0 0.0
2018-Apr-10 20:21N 39°15' W 076°33'0 0.0
2018-Apr-10 19:57N 39°15' W 076°33'0 0.0
2018-Apr-10 19:30N 39°15' W 076°33'0 0.0
2018-Apr-10 18:52N 39°15' W 076°33'0 0.0
2018-Apr-10 18:27N 39°15' W 076°33'0 0.0
2018-Apr-10 18:00N 39°15' W 076°33'0 0.0
2018-Apr-10 17:27N 39°15' W 076°33'0 0.0
2018-Apr-10 16:57N 39°15' W 076°33'0 0.0
2018-Apr-10 16:30N 39°15' W 076°33'0 0.0
2018-Apr-10 16:00N 39°15' W 076°33'0 0.0
2018-Apr-10 15:30N 39°15' W 076°33'0 0.0
2018-Apr-10 14:57N 39°15' W 076°33'0 0.0
2018-Apr-10 14:21N 39°15' W 076°33'0 0.0
2018-Apr-10 13:57N 39°15' W 076°33'0 0.0
2018-Apr-10 13:27N 39°15' W 076°33'0 0.0
2018-Apr-10 12:57N 39°15' W 076°33'0 0.0
2018-Apr-10 12:27N 39°15' W 076°33'0 0.0
2018-Apr-10 11:51N 39°15' W 076°33'0 0.0
2018-Apr-10 11:27N 39°15' W 076°33'0 0.0
2018-Apr-10 10:57N 39°15' W 076°33'0 0.0
2018-Apr-10 10:30N 39°15' W 076°33'0 0.0
2018-Apr-10 10:00N 39°15' W 076°33'1 1.3
2018-Apr-10 09:30N 39°14' W 076°33'3 5.1
2018-Apr-10 09:00N 39°12' W 076°31'711.5
2018-Apr-10 08:22N 39°07' W 076°24'513.4
2018-Apr-10 07:59N 39°02' W 076°23'611.0
2018-Apr-10 07:29N 38°57' W 076°24'4517.3
2018-Apr-10 04:53N 38°12' W 076°15'818.3
2018-Apr-10 04:27N 38°05' W 076°13'6016.3
2018-Apr-10 00:45N 37°05' W 076°06'417.6
2018-Apr-10 00:30N 37°01' W 076°03'814.8
2018-Apr-09 23:58N 36°56' W 075°56'3 7.0
2018-Apr-09 23:30N 36°53' W 075°53'3 6.8
2018-Apr-09 23:00N 36°51' W 075°50'3 6.0
2018-Apr-09 22:27N 36°50' W 075°46'4 8.1
2018-Apr-09 22:00N 36°49' W 075°42'192 7.1
2018-Apr-08 19:05N 39°41' W 073°53'212.6
2018-Apr-08 18:58N 39°42' W 073°52'612.6
2018-Apr-08 18:29N 39°48' W 073°52'2212.4
2018-Apr-08 16:44N 40°10' W 073°49'2 9.8
2018-Apr-08 16:30N 40°12' W 073°49'5 9.9
2018-Apr-08 15:59N 40°17' W 073°49'5 9.8
2018-Apr-08 15:30N 40°22' W 073°49'5 9.4
2018-Apr-08 15:00N 40°27' W 073°50'5 9.7
2018-Apr-08 14:30N 40°29' W 073°55'611.8
2018-Apr-08 14:00N 40°33' W 074°02'612.9
2018-Apr-08 13:30N 40°39' W 074°05'2 4.8
2018-Apr-08 13:00N 40°39' W 074°08'1 2.7
2018-Apr-08 12:30N 40°40' W 074°08'1 2.3
2018-Apr-08 12:00N 40°41' W 074°09'0 0.8
2018-Apr-08 11:30N 40°41' W 074°09'0 0.0
2018-Apr-08 11:00N 40°41' W 074°09'0 0.0
2018-Apr-08 10:30N 40°41' W 074°09'0 0.0
2018-Apr-08 10:00N 40°41' W 074°09'0 0.0
2018-Apr-08 09:30N 40°41' W 074°09'0 0.0
2018-Apr-08 09:00N 40°41' W 074°09'0 0.0
2018-Apr-08 08:30N 40°41' W 074°09'0 0.0
2018-Apr-08 08:00N 40°41' W 074°09'0 0.0
2018-Apr-08 07:30N 40°41' W 074°09'0 0.0
2018-Apr-08 07:00N 40°41' W 074°09'0 0.0
2018-Apr-08 06:30N 40°41' W 074°09'0 0.0
2018-Apr-08 06:00N 40°41' W 074°09'0 0.0
2018-Apr-08 05:30N 40°41' W 074°09'0 0.0
2018-Apr-08 05:00N 40°41' W 074°09'0 0.0
2018-Apr-08 04:30N 40°41' W 074°09'0 0.0
2018-Apr-08 03:57N 40°41' W 074°09'0 0.0
2018-Apr-08 03:30N 40°41' W 074°09'0 0.0
2018-Apr-08 03:00N 40°41' W 074°09'0 0.0
2018-Apr-08 02:27N 40°41' W 074°09'0 0.0
2018-Apr-08 02:00N 40°41' W 074°09'0 0.0
2018-Apr-08 01:30N 40°41' W 074°09'0 0.0
2018-Apr-08 01:00N 40°41' W 074°09'0 0.0
2018-Apr-08 00:30N 40°41' W 074°09'0 0.0
2018-Apr-08 00:00N 40°41' W 074°09'0 0.0
2018-Apr-07 23:30N 40°41' W 074°09'0 0.0
2018-Apr-07 23:00N 40°41' W 074°09'0 0.0
2018-Apr-07 22:30N 40°41' W 074°09'0 0.0
2018-Apr-07 22:00N 40°41' W 074°09'0 0.0
2018-Apr-07 21:27N 40°41' W 074°09'0 0.0
2018-Apr-07 21:00N 40°41' W 074°09'0 0.0
2018-Apr-07 20:30N 40°41' W 074°09'0 0.0
2018-Apr-07 20:00N 40°41' W 074°09'0 0.0
2018-Apr-07 19:30N 40°41' W 074°09'0 0.0
2018-Apr-07 19:00N 40°41' W 074°09'0 0.0
2018-Apr-07 18:30N 40°41' W 074°09'0 0.0
2018-Apr-07 18:00N 40°41' W 074°09'0 0.0
2018-Apr-07 17:30N 40°41' W 074°09'0 0.0
2018-Apr-07 17:00N 40°41' W 074°09'0 0.0
2018-Apr-07 16:30N 40°41' W 074°09'0 0.0
2018-Apr-07 16:00N 40°41' W 074°09'0 0.0
2018-Apr-07 15:30N 40°41' W 074°09'0 0.0
2018-Apr-07 15:00N 40°41' W 074°09'0 0.0
2018-Apr-07 14:30N 40°41' W 074°09'0 0.0
2018-Apr-07 14:00N 40°41' W 074°09'0 0.0
2018-Apr-07 13:30N 40°41' W 074°09'0 0.0
2018-Apr-07 13:00N 40°41' W 074°09'0 0.0
2018-Apr-07 12:30N 40°41' W 074°09'1 1.5
2018-Apr-07 12:00N 40°41' W 074°09'2 4.3
2018-Apr-07 11:30N 40°39' W 074°09'3 5.0
2018-Apr-07 11:00N 40°39' W 074°05'3 5.8
2018-Apr-07 10:30N 40°37' W 074°03'612.7
2018-Apr-07 10:00N 40°31' W 073°59'611.2
2018-Apr-07 09:30N 40°29' W 073°53'4 9.0
2018-Apr-07 09:01N 40°26' W 073°48'5 9.7
2018-Apr-07 08:28N 40°21' W 073°46'3811.7
2018-Apr-07 05:11N 39°43' W 073°43'415.1
2018-Apr-07 04:56N 39°40' W 073°45'715.1
2018-Apr-07 04:29N 39°33' W 073°48'3415.0
2018-Apr-07 02:12N 39°02' W 074°06'315.0
2018-Apr-07 02:00N 38°59' W 074°08'715.0
2018-Apr-07 01:30N 38°53' W 074°12'815.1
2018-Apr-07 01:00N 38°46' W 074°17'  

Dump ship's entire track history